View Mont, North Carolina
Current Conditions -  °F | °C
As of 9:53 AM on Wednesday 22 Oct 2014 (Local Time) from KHKY Reporting Station
Clear Clear  
Wind Chill: 52°   Ceiling: Unl
Heat Index: 52°   Visibility: 10mi
Dew Point: 36°   Wind: 8mph
Humidity: 54%   Direction: 320°NW
Pressure: 30.1"   Gusts: NA
Location:  35.7628°N, 81.3219°W
Report Text: KHKY 221353Z 32007KT 10SM CLR 11/02 A3010 RMK AO2 SLP179 T01110022
Loading
Personal Weather Stations






























Interactive Weather Map
Tropical Storm Tracking
New forecast layout! Learn more

10-Day Weather Forecast

Advertisements
Track Severe Weather on mobile